Time;durP1;ratioP1;P1;durP2;ratioP2;P2;SDS_P1;SDS_P2;PMS_P1;PMS_P2;Temp;Humidity;BMP_temperature;BMP_pressure;BME280_temperature;BME280_humidity;BME280_pressure;Samples;Min_cycle;Max_cycle;Signal;HPM_P1;HPM_P2
2024/04/09 00:02:56;;;;;;;20.30;6.28;;;;;;;20.29;100.00;100826.69;11299457;26;20438;-83
2024/04/09 00:08:21;;;;;;;14.90;6.10;;;;;;;20.21;100.00;100812.59;11325727;26;20365;-82
2024/04/09 00:13:45;;;;;;;20.95;5.85;;;;;;;20.21;100.00;100825.13;11300450;26;19998;-83
2024/04/09 00:19:17;;;;;;;14.80;5.72;;;;;;;20.21;100.00;100817.06;11325236;26;20459;-81
2024/04/09 00:24:41;;;;;;;22.88;6.35;;;;;;;20.18;100.00;100809.97;11323986;26;20013;-82
2024/04/09 00:30:06;;;;;;;24.08;6.30;;;;;;;20.16;100.00;100792.13;11349973;26;20013;-82
2024/04/09 00:35:34;;;;;;;21.25;6.75;;;;;;;20.16;100.00;100797.50;11325252;26;20014;-82
2024/04/09 00:40:58;;;;;;;19.10;6.40;;;;;;;20.15;100.00;100796.63;11349330;26;20109;-83
2024/04/09 00:46:23;;;;;;;19.58;7.00;;;;;;;20.19;100.00;100790.28;11349632;26;19994;-82
2024/04/09 00:51:55;;;;;;;22.17;6.88;;;;;;;20.27;100.00;100784.75;11323634;26;20042;-82
2024/04/09 00:57:19;;;;;;;17.48;6.78;;;;;;;20.25;100.00;100784.78;11322831;26;20018;-82
2024/04/09 01:02:43;;;;;;;18.58;6.50;;;;;;;20.21;100.00;100775.06;11298731;26;20387;-82
2024/04/09 01:08:11;;;;;;;22.98;6.88;;;;;;;20.20;100.00;100769.72;11297979;26;20001;-83
2024/04/09 01:13:35;;;;;;;22.67;7.13;;;;;;;20.17;100.00;100767.97;11323424;26;20002;-82
2024/04/09 01:18:59;;;;;;;16.60;6.88;;;;;;;20.16;100.00;100771.56;11330322;26;20066;-83
2024/04/09 01:24:28;;;;;;;22.05;7.43;;;;;;;20.16;100.00;100768.00;11305257;26;20483;-82
2024/04/09 01:29:53;;;;;;;16.98;7.22;;;;;;;20.17;100.00;100767.97;11305368;26;20016;-82
2024/04/09 01:35:19;;;;;;;18.23;6.80;;;;;;;20.19;100.00;100776.00;11329989;26;19998;-83
2024/04/09 01:40:46;;;;;;;22.92;7.38;;;;;;;20.14;100.00;100781.47;11304825;26;19998;-83
2024/04/09 01:46:11;;;;;;;22.97;6.50;;;;;;;20.07;100.00;100778.97;11305584;26;20009;-82
2024/04/09 01:51:38;;;;;;;16.48;7.05;;;;;;;20.08;100.00;100783.41;11305074;26;20026;-82
2024/04/09 01:57:07;;;;;;;18.27;6.35;;;;;;;20.14;100.00;100780.59;11328421;26;20042;-82
2024/04/09 02:02:31;;;;;;;14.57;6.30;;;;;;;20.10;100.00;100776.19;11303752;26;20002;-82
2024/04/09 02:07:57;;;;;;;15.60;6.75;;;;;;;20.05;100.00;100770.97;11304086;26;20026;-82
2024/04/09 02:13:25;;;;;;;18.90;6.35;;;;;;;19.97;100.00;100758.63;11329296;26;19998;-82
2024/04/09 02:18:49;;;;;;;12.80;5.38;;;;;;;19.86;100.00;100761.56;11253001;26;20002;-83
2024/04/09 02:24:13;;;;;;;18.67;5.82;;;;;;;19.81;100.00;100761.69;11229179;26;20353;-82
2024/04/09 02:29:41;;;;;;;19.58;6.85;;;;;;;19.83;100.00;100769.66;11253011;26;20003;-82
2024/04/09 02:35:10;;;;;;;17.95;6.40;;;;;;;19.83;100.00;100773.22;11278412;26;20011;-82
2024/04/09 02:40:34;;;;;;;18.05;6.28;;;;;;;19.82;100.00;100775.97;11227973;26;20076;-82
2024/04/09 02:46:01;;;;;;;21.63;6.68;;;;;;;19.85;100.00;100774.09;11253194;26;20030;-83
2024/04/09 02:51:26;;;;;;;15.32;6.30;;;;;;;19.87;100.00;100771.38;11327247;26;20009;-81
2024/04/09 02:56:50;;;;;;;14.07;7.20;;;;;;;19.84;100.00;100774.13;11325893;26;20503;-82
2024/04/09 03:02:18;;;;;;;19.77;7.15;;;;;;;19.84;100.00;100780.34;11327757;26;20002;-82
2024/04/09 03:07:42;;;;;;;21.77;6.43;;;;;;;19.84;100.00;100780.34;11327230;26;20319;-81
2024/04/09 03:13:06;;;;;;;21.92;6.80;;;;;;;19.84;100.00;100785.72;11326120;26;20431;-82
2024/04/09 03:18:33;;;;;;;16.45;5.75;;;;;;;19.85;100.00;100783.91;11325918;26;20030;-82
2024/04/09 03:23:57;;;;;;;15.03;5.80;;;;;;;19.78;100.00;100790.31;11352025;26;20705;-82
2024/04/09 03:29:24;;;;;;;20.08;6.22;;;;;;;19.76;100.00;100790.34;11326315;26;19994;-82
2024/04/09 03:34:51;;;;;;;16.75;6.22;;;;;;;19.79;100.00;100782.25;11325964;26;20012;-82
2024/04/09 03:40:16;;;;;;;18.85;5.95;;;;;;;19.76;100.00;100786.78;11326249;26;20075;-81
2024/04/09 03:45:41;;;;;;;17.00;6.40;;;;;;;19.68;100.00;100786.97;11352243;26;19995;-83
2024/04/09 03:51:10;;;;;;;15.82;6.20;;;;;;;19.64;100.00;100792.41;11325516;26;20002;-82
2024/04/09 03:56:34;;;;;;;;;;;;;;;19.60;100.00;100810.34;11325662;26;20026;-83
2024/04/09 04:01:58;;;;;;;19.00;5.90;;;;;;;19.47;100.00;100814.19;11325416;26;19930;-82
2024/04/09 04:07:26;;;;;;;17.35;5.97;;;;;;;19.43;100.00;100828.50;11325659;26;20002;-82
2024/04/09 04:12:52;;;;;;;13.13;5.90;;;;;;;19.42;100.00;100822.31;11325559;26;20400;-82
2024/04/09 04:18:16;;;;;;;16.02;6.30;;;;;;;19.43;100.00;100824.03;11345755;26;20010;-81
2024/04/09 04:23:43;;;;;;;16.05;5.95;;;;;;;19.45;100.00;100830.25;11325134;26;19998;-83
2024/04/09 04:29:10;;;;;;;18.88;5.28;;;;;;;19.55;100.00;100844.41;11350038;26;20030;-82
2024/04/09 04:34:34;;;;;;;14.02;5.50;;;;;;;19.63;100.00;100842.41;11324987;26;20010;-83
2024/04/09 04:40:01;;;;;;;17.90;5.25;;;;;;;19.72;100.00;100841.34;11349811;26;20006;-82
2024/04/09 04:45:25;;;;;;;14.40;5.07;;;;;;;19.77;100.00;100847.50;11313596;26;19998;-83
2024/04/09 04:50:52;;;;;;;17.48;4.80;;;;;;;19.83;100.00;100853.59;11309427;26;20010;-81
2024/04/09 04:56:19;;;;;;;14.23;4.97;;;;;;;19.94;100.00;100863.25;11295296;26;20235;-81
2024/04/09 05:01:43;;;;;;;13.80;5.43;;;;;;;19.99;100.00;100846.13;11321194;26;20001;-80
2024/04/09 05:07:09;;;;;;;16.35;4.82;;;;;;;20.09;100.00;100854.84;11296900;26;20064;-82
2024/04/09 05:12:36;;;;;;;13.30;5.13;;;;;;;20.22;100.00;100854.53;11321851;26;20878;-81
2024/04/09 05:18:01;;;;;;;14.50;4.70;;;;;;;20.20;100.00;100859.09;11337543;26;20013;-82
2024/04/09 05:23:25;;;;;;;10.73;4.63;;;;;;;20.35;100.00;100867.72;11295020;26;20017;-82
2024/04/09 05:28:52;;;;;;;17.98;5.15;;;;;;;20.44;100.00;100854.97;11320133;26;20013;-82
2024/04/09 05:34:16;;;;;;;15.13;4.70;;;;;;;20.45;100.00;100864.78;11318656;26;20070;-79
2024/04/09 05:39:42;;;;;;;18.67;4.85;;;;;;;20.60;100.00;100867.13;11295431;26;20013;-80
2024/04/09 05:45:12;;;;;;;11.45;4.40;;;;;;;21.02;100.00;100875.91;11320558;26;20021;-80
2024/04/09 05:50:36;;;;;;;9.27;4.00;;;;;;;21.33;100.00;100870.63;11294676;26;20026;-79
2024/04/09 05:56:00;;;;;;;12.10;3.88;;;;;;;21.50;100.00;100869.31;11318381;26;20009;-79
2024/04/09 06:01:27;;;;;;;14.60;5.25;;;;;;;21.39;100.00;100878.56;11295353;26;20572;-80
2024/04/09 06:06:53;;;;;;;14.43;4.00;;;;;;;21.30;100.00;100883.28;11301523;26;20009;-80
2024/04/09 06:12:17;;;;;;;12.30;4.30;;;;;;;21.25;100.00;100886.09;11327467;26;20009;-79
2024/04/09 06:17:47;;;;;;;13.80;4.10;;;;;;;21.15;100.00;100880.94;11339486;26;20074;-80
2024/04/09 06:23:12;;;;;;;9.65;3.90;;;;;;;21.17;100.00;100888.09;11300945;26;20006;-78
2024/04/09 06:28:36;;;;;;;11.48;4.20;;;;;;;21.48;100.00;100897.09;11301831;26;20013;-80
2024/04/09 06:34:03;;;;;;;10.65;3.95;;;;;;;21.49;100.00;100900.66;11301478;26;20002;-80
2024/04/09 06:39:28;;;;;;;11.43;3.53;;;;;;;21.61;100.00;100896.75;11301966;26;20362;-81
2024/04/09 06:44:52;;;;;;;13.93;3.72;;;;;;;21.99;100.00;100912.69;11300219;26;20002;-81
2024/04/09 06:50:19;;;;;;;8.98;3.70;;;;;;;22.72;100.00;100915.84;11279696;26;20002;-81
2024/04/09 06:55:44;;;;;;;14.80;3.60;;;;;;;23.07;98.05;100920.13;11325802;26;20664;-81
2024/04/09 07:01:08;;;;;;;9.20;3.60;;;;;;;23.67;98.43;100930.66;11326001;26;20009;-81
2024/04/09 07:06:35;;;;;;;10.93;3.28;;;;;;;24.85;90.36;100937.84;11326022;26;20464;-81
2024/04/09 07:12:00;;;;;;;6.47;3.65;;;;;;;25.02;81.11;100938.06;11300759;26;20034;-82
2024/04/09 07:17:24;;;;;;;12.60;4.88;;;;;;;25.25;72.28;100938.00;11334092;26;20440;-82
2024/04/09 07:22:51;;;;;;;14.75;3.17;;;;;;;24.72;72.18;100936.59;11299917;26;20006;-81
2024/04/09 07:28:16;;;;;;;9.80;3.53;;;;;;;25.19;71.85;100946.38;11299752;26;20013;-83
2024/04/09 07:33:40;;;;;;;8.52;2.72;;;;;;;25.85;67.43;100948.97;11300289;26;19994;-82
2024/04/09 07:39:08;;;;;;;9.23;3.20;;;;;;;26.38;57.00;100933.91;11296182;26;20026;-82
2024/04/09 07:44:32;;;;;;;11.25;3.25;;;;;;;26.52;52.50;100933.22;11295145;26;20016;-82
2024/04/09 07:49:56;;;;;;;9.07;2.88;;;;;;;26.70;49.44;100943.19;11300400;26;20442;-83
2024/04/09 07:55:24;;;;;;;9.48;2.88;;;;;;;26.87;48.89;100948.66;11324538;26;20004;-82
2024/04/09 08:00:48;;;;;;;5.72;2.50;;;;;;;27.37;48.10;100942.59;11276632;26;20503;-83
2024/04/09 08:06:13;;;;;;;7.97;2.92;;;;;;;27.75;47.65;100948.78;11250792;26;20075;-83
2024/04/09 08:11:42;;;;;;;9.48;2.90;;;;;;;27.53;47.75;100953.56;11276212;26;19999;-82
2024/04/09 08:17:06;;;;;;;12.70;3.05;;;;;;;27.02;49.17;100947.06;11275638;26;20010;-83
2024/04/09 08:22:30;;;;;;;10.55;2.90;;;;;;;26.55;49.94;100954.75;11249985;26;20597;-83
2024/04/09 08:28:01;;;;;;;8.48;2.88;;;;;;;26.59;50.77;100945.50;11274868;26;20016;-84
2024/04/09 08:33:26;;;;;;;10.65;2.95;;;;;;;27.01;50.71;100953.44;11300741;26;20026;-82
2024/04/09 08:38:51;;;;;;;14.30;3.10;;;;;;;27.51;48.36;100953.59;11250575;26;20450;-82
2024/04/09 08:44:21;;;;;;;10.35;2.78;;;;;;;27.79;45.83;100946.75;11249774;26;19998;-83
2024/04/09 08:49:45;;;;;;;14.57;3.30;;;;;;;28.24;42.86;100943.44;11219699;26;20003;-82
2024/04/09 08:55:10;;;;;;;11.75;3.35;;;;;;;28.54;44.53;100958.06;11248307;26;20039;-81
2024/04/09 09:00:38;;;;;;;11.48;3.08;;;;;;;28.51;44.32;100969.97;11274246;26;20013;-82
2024/04/09 09:06:04;;;;;;;13.70;3.45;;;;;;;27.74;45.51;100961.47;11224780;26;20003;-83
2024/04/09 09:11:29;;;;;;;11.95;3.22;;;;;;;27.29;45.96;100963.78;11274049;26;20696;-81
2024/04/09 09:17:02;;;;;;;12.60;3.20;;;;;;;26.90;47.86;100964.81;11246281;26;20014;-81
2024/04/09 09:22:28;;;;;;;10.35;3.92;;;;;;;26.78;48.12;100967.22;11271635;26;20003;-82
2024/04/09 09:28:06;;;;;;;8.10;2.70;;;;;;;27.61;47.30;100951.31;11271692;26;20009;-81
2024/04/09 09:33:38;;;;;;;8.68;3.33;;;;;;;28.48;43.17;100964.72;11271999;26;20423;-81
2024/04/09 09:39:04;;;;;;;10.43;3.30;;;;;;;28.82;40.99;100969.16;11270185;26;20080;-83
2024/04/09 09:44:31;;;;;;;7.32;3.08;;;;;;;28.97;40.75;100977.41;11251938;26;20003;-82
2024/04/09 09:50:00;;;;;;;8.55;2.78;;;;;;;29.23;39.91;100971.31;11277737;26;20010;-82
2024/04/09 09:55:25;;;;;;;9.20;3.17;;;;;;;28.35;41.03;100971.78;11277990;26;20350;-80
2024/04/09 10:00:51;;;;;;;11.45;3.20;;;;;;;28.15;42.50;100988.28;11253278;26;20002;-81
2024/04/09 10:06:19;;;;;;;11.85;3.35;;;;;;;28.72;42.04;100977.88;11253521;26;19999;-82
2024/04/09 10:11:46;;;;;;;11.63;3.00;;;;;;;28.76;41.80;100983.09;11277403;26;20080;-81
2024/04/09 10:17:14;;;;;;;11.25;2.80;;;;;;;28.68;41.38;100984.47;11277497;26;19999;-82
2024/04/09 10:22:45;;;;;;;13.07;3.28;;;;;;;29.06;41.35;100995.91;11252411;26;20003;-81
2024/04/09 10:28:11;;;;;;;11.30;2.28;;;;;;;29.42;41.54;101001.06;11276701;26;20072;-81
2024/04/09 10:33:37;;;;;;;9.73;2.88;;;;;;;29.45;41.38;100987.31;11276450;26;20011;-82
2024/04/09 10:39:07;;;;;;;5.97;2.90;;;;;;;29.48;40.24;100990.72;11251609;26;19999;-83
2024/04/09 10:44:31;;;;;;;10.43;2.85;;;;;;;29.64;38.98;100985.22;11251819;26;20003;-82
2024/04/09 10:49:55;;;;;;;5.68;3.08;;;;;;;29.39;37.28;100984.94;11275028;26;20002;-82
2024/04/09 10:55:23;;;;;;;7.75;2.75;;;;;;;29.23;37.29;100987.66;11275051;26;19999;-80
2024/04/09 11:00:52;;;;;;;9.23;2.63;;;;;;;29.29;38.98;100999.03;11275716;26;20030;-82
2024/04/09 11:06:17;;;;;;;14.73;2.90;;;;;;;28.92;40.63;100997.56;11251335;26;19999;-83
2024/04/09 11:11:45;;;;;;;9.90;2.80;;;;;;;28.66;41.24;100976.41;11250495;26;20014;-81
2024/04/09 11:17:18;;;;;;;9.18;3.47;;;;;;;28.51;41.49;100986.28;11249231;26;20071;-83
2024/04/09 11:22:46;;;;;;;14.65;3.30;;;;;;;28.31;41.72;100981.03;11275000;26;20396;-82
2024/04/09 11:28:13;;;;;;;9.65;3.47;;;;;;;27.86;41.73;100983.47;11276156;26;20030;-81
2024/04/09 11:33:40;;;;;;;8.85;3.13;;;;;;;27.76;41.73;100981.22;11249900;26;20006;-82
2024/04/09 11:39:07;;;;;;;14.38;3.25;;;;;;;27.76;41.63;100981.22;11274860;26;20023;-81
2024/04/09 11:44:40;;;;;;;9.15;3.13;;;;;;;27.55;40.76;100960.66;11250789;26;20049;-82
2024/04/09 11:50:05;;;;;;;8.40;2.92;;;;;;;27.33;42.04;100962.66;11240633;26;19999;-84
2024/04/09 11:55:29;;;;;;;18.67;3.47;;;;;;;27.20;42.33;100986.81;11271727;26;20015;-84
2024/04/09 12:00:58;;;;;;;9.55;3.00;;;;;;;26.83;42.83;100971.44;11273093;26;20014;-85
2024/04/09 12:06:23;;;;;;;12.23;3.20;;;;;;;26.33;45.01;100968.41;11249923;26;20023;-84
2024/04/09 12:11:47;;;;;;;7.47;3.40;;;;;;;26.24;45.07;100959.81;11274734;26;19998;-83
2024/04/09 12:17:15;;;;;;;11.52;3.05;;;;;;;26.03;46.10;100962.53;11249393;26;19999;-85
2024/04/09 12:22:39;;;;;;;11.32;2.90;;;;;;;26.06;46.51;100950.69;11205133;26;20027;-85
2024/04/09 12:28:03;;;;;;;12.13;3.20;;;;;;;25.95;44.17;100948.47;11249300;26;20011;-83
2024/04/09 12:33:31;;;;;;;9.82;3.22;;;;;;;26.02;45.12;100938.25;11248906;26;20006;-83
2024/04/09 12:38:56;;;;;;;9.23;2.95;;;;;;;25.91;45.77;100952.28;11274217;26;19998;-82
2024/04/09 12:44:20;;;;;;;13.48;3.33;;;;;;;25.82;45.83;100936.44;11249788;26;20016;-81
2024/04/09 12:49:47;;;;;;;9.18;2.50;;;;;;;25.73;44.82;100955.81;11248053;26;20010;-83
2024/04/09 12:55:11;;;;;;;12.63;2.85;;;;;;;25.47;45.20;100959.56;11247931;26;20003;-82
2024/04/09 13:00:35;;;;;;;13.98;3.13;;;;;;;25.35;47.04;100954.69;11272807;26;19998;-82
2024/04/09 13:06:03;;;;;;;12.30;2.90;;;;;;;25.32;48.27;100958.44;11248085;26;20436;-81
2024/04/09 13:11:27;;;;;;;14.02;3.13;;;;;;;25.41;49.12;100962.53;11245951;26;20009;-83
2024/04/09 13:16:59;;;;;;;12.82;3.35;;;;;;;25.28;49.96;100959.47;11272718;26;20034;-82
2024/04/09 13:22:30;;;;;;;7.55;2.70;;;;;;;25.14;49.50;100963.72;11272320;26;19999;-82
2024/04/09 13:27:56;;;;;;;8.90;3.03;;;;;;;25.15;49.63;100963.63;11271445;26;19999;-82
2024/04/09 13:33:20;;;;;;;10.43;2.33;;;;;;;25.15;49.91;100970.88;11247204;26;19999;-85
2024/04/09 13:38:48;;;;;;;11.07;2.97;;;;;;;25.04;50.00;100962.31;11271856;26;20072;-83
2024/04/09 13:44:13;;;;;;;12.55;3.75;;;;;;;25.05;49.87;100975.78;11247168;26;20030;-84
2024/04/09 13:49:37;;;;;;;12.40;3.10;;;;;;;25.02;49.87;100975.91;11222215;26;20152;-83
2024/04/09 13:55:06;;;;;;;12.38;3.40;;;;;;;24.93;49.99;100976.28;11269898;26;20090;-83
2024/04/09 14:00:30;;;;;;;10.73;2.80;;;;;;;24.85;49.58;100976.56;11270325;26;20003;-81
2024/04/09 14:05:54;;;;;;;14.35;3.35;;;;;;;24.76;49.87;100978.72;11270342;26;20072;-81
2024/04/09 14:11:21;;;;;;;8.40;2.88;;;;;;;24.57;49.59;100978.56;11269857;26;20011;-82
2024/04/09 14:16:45;;;;;;;12.77;3.33;;;;;;;24.52;49.56;100983.28;11244277;26;20010;-82
2024/04/09 14:22:10;;;;;;;11.60;2.92;;;;;;;24.66;49.62;100996.25;11269947;26;20441;-82
2024/04/09 14:27:38;;;;;;;11.13;2.97;;;;;;;24.75;49.44;100988.63;11251986;26;20003;-82
2024/04/09 14:33:04;;;;;;;15.55;3.67;;;;;;;24.70;48.76;101005.97;11276954;26;20006;-82
2024/04/09 14:38:28;;;;;;;10.02;3.00;;;;;;;24.65;49.97;101008.84;11250678;26;20000;-83
2024/04/09 14:43:55;;;;;;;12.13;3.67;;;;;;;24.69;49.85;101026.69;11252189;26;19999;-82
2024/04/09 14:49:19;;;;;;;9.98;3.33;;;;;;;24.78;49.12;101031.75;11241954;26;19999;-81
2024/04/09 14:54:43;;;;;;;11.15;3.13;;;;;;;24.75;48.65;101017.47;11249768;26;20347;-82
2024/04/09 15:00:12;;;;;;;11.55;3.42;;;;;;;24.38;49.73;101023.41;11276393;26;20014;-82
2024/04/09 15:05:36;;;;;;;11.40;3.05;;;;;;;23.97;52.06;101031.13;11277264;26;20037;-82
2024/04/09 15:11:02;;;;;;;9.57;3.25;;;;;;;23.64;55.30;101056.56;11276554;26;20013;-81
2024/04/09 15:16:30;;;;;;;16.65;3.45;;;;;;;23.32;60.52;101062.97;11275461;26;20010;-81
2024/04/09 15:21:54;;;;;;;16.88;3.90;;;;;;;23.00;63.93;101081.03;11250804;26;20003;-81
2024/04/09 15:27:18;;;;;;;17.48;3.88;;;;;;;22.88;67.56;101081.41;11251059;26;20494;-81
2024/04/09 15:32:45;;;;;;;10.50;3.17;;;;;;;22.74;72.00;101080.06;11270262;26;19999;-82
2024/04/09 15:38:10;;;;;;;12.65;3.30;;;;;;;22.48;72.91;101088.84;11250157;26;20017;-82
2024/04/09 15:43:34;;;;;;;13.85;4.10;;;;;;;22.21;77.24;101090.50;11251167;26;20079;-80
2024/04/09 15:49:02;;;;;;;17.58;3.90;;;;;;;22.00;79.73;101107.19;11276226;26;20003;-82
2024/04/09 15:54:26;;;;;;;14.63;3.97;;;;;;;21.83;82.38;101104.91;11276059;26;20420;-81
2024/04/09 15:59:51;;;;;;;15.50;3.55;;;;;;;21.73;87.72;101103.34;11298669;26;20002;-81
2024/04/09 16:05:19;;;;;;;14.00;4.10;;;;;;;21.64;88.85;101104.47;11301239;26;20030;-82
2024/04/09 16:10:43;;;;;;;12.77;4.15;;;;;;;21.47;87.85;101107.56;11326080;26;20006;-81
2024/04/09 16:16:10;;;;;;;18.00;3.72;;;;;;;21.29;88.87;101113.38;11325983;26;20355;-82
2024/04/09 16:21:37;;;;;;;13.93;4.30;;;;;;;21.21;89.31;101104.59;11317509;26;20014;-81
2024/04/09 16:27:01;;;;;;;13.90;3.37;;;;;;;21.17;90.23;101102.91;11315813;26;20006;-82
2024/04/09 16:32:25;;;;;;;13.77;3.53;;;;;;;20.99;94.88;101104.16;11326981;26;20223;-82
2024/04/09 16:37:52;;;;;;;12.57;3.90;;;;;;;20.90;95.77;101106.16;11323179;26;20021;-84
2024/04/09 16:43:17;;;;;;;14.35;4.22;;;;;;;20.74;97.01;101092.19;11322391;26;20399;-80
2024/04/09 16:48:41;;;;;;;14.25;4.20;;;;;;;20.68;97.71;101092.28;11336547;26;20349;-81
2024/04/09 16:54:09;;;;;;;16.05;5.03;;;;;;;20.62;99.05;101097.78;11272731;26;20038;-81
2024/04/09 16:59:33;;;;;;;14.50;3.97;;;;;;;20.56;98.85;101081.81;11322690;26;19998;-82
2024/04/09 17:04:57;;;;;;;13.18;3.60;;;;;;;20.46;99.57;101097.22;11321369;26;20002;-81
2024/04/09 17:10:24;;;;;;;12.80;4.03;;;;;;;20.47;98.79;101099.00;11272068;26;19999;-81
2024/04/09 17:15:48;;;;;;;18.75;4.13;;;;;;;20.36;99.90;101084.88;11289772;26;20022;-81
2024/04/09 17:21:12;;;;;;;15.10;4.22;;;;;;;20.34;99.60;101097.47;11292457;26;19995;-79
2024/04/09 17:26:40;;;;;;;19.05;4.57;;;;;;;20.30;99.67;101098.38;11296055;26;20442;-80
2024/04/09 17:32:05;;;;;;;16.90;4.03;;;;;;;20.14;99.74;101102.28;11321326;26;20468;-80
2024/04/09 17:37:30;;;;;;;15.02;3.72;;;;;;;20.13;99.72;101105.88;11319871;26;19994;-80
2024/04/09 17:43:09;;;;;;;11.05;3.65;;;;;;;20.02;100.00;101107.88;11295322;26;20010;-81
2024/04/09 17:48:33;;;;;;;13.27;4.25;;;;;;;20.03;100.00;101110.50;11239748;26;20013;-81
2024/04/09 17:53:57;;;;;;;12.18;4.20;;;;;;;20.07;100.00;101114.91;11295465;26;20002;-80
2024/04/09 17:59:25;;;;;;;12.65;3.50;;;;;;;19.90;100.00;101128.59;11302206;26;19998;-82
2024/04/09 18:04:49;;;;;;;14.17;4.53;;;;;;;19.76;100.00;101144.00;11303331;26;20342;-81
2024/04/09 18:10:13;;;;;;;12.45;3.67;;;;;;;19.77;100.00;101134.16;11301942;26;20002;-81
2024/04/09 18:15:41;;;;;;;8.85;3.58;;;;;;;19.77;100.00;101127.03;11302543;26;20074;-80
2024/04/09 18:21:06;;;;;;;14.18;3.40;;;;;;;19.70;100.00;101127.13;11279879;26;20007;-80
2024/04/09 18:26:30;;;;;;;13.18;3.80;;;;;;;19.74;100.00;101139.59;11232611;26;20002;-81
2024/04/09 18:31:57;;;;;;;12.68;3.80;;;;;;;19.74;100.00;101143.16;11257111;26;20075;-79
2024/04/09 18:37:24;;;;;;;12.37;4.20;;;;;;;19.70;100.00;101145.88;11257511;26;19999;-83
2024/04/09 18:42:50;;;;;;;11.60;3.60;;;;;;;19.67;100.00;101137.91;11257962;26;20013;-82
2024/04/09 18:48:17;;;;;;;14.73;4.00;;;;;;;19.61;100.00;101129.97;11324815;26;19998;-80
2024/04/09 18:53:41;;;;;;;11.55;3.85;;;;;;;19.43;100.00;101139.13;11257085;26;20038;-82
2024/04/09 18:59:05;;;;;;;13.05;4.05;;;;;;;19.34;100.00;101145.53;11233205;26;20038;-84
2024/04/09 19:04:35;;;;;;;12.13;3.78;;;;;;;19.30;100.00;101135.75;11257319;26;19995;-81
2024/04/09 19:10:02;;;;;;;8.88;3.72;;;;;;;19.37;100.00;101147.25;11255599;26;20005;-80
2024/04/09 19:15:26;;;;;;;10.10;3.65;;;;;;;19.21;100.00;101146.59;11285277;26;20010;-81
2024/04/09 19:20:59;;;;;;;13.35;4.03;;;;;;;19.31;100.00;101141.97;11357438;26;20002;-82
2024/04/09 19:26:23;;;;;;;13.35;4.72;;;;;;;19.25;100.00;101137.59;11356555;26;20017;-82
2024/04/09 19:31:48;;;;;;;11.27;3.92;;;;;;;19.21;100.00;101145.72;11331989;26;20070;-83
2024/04/09 19:37:16;;;;;;;9.98;3.95;;;;;;;19.06;100.00;101134.28;11332604;26;20074;-83
2024/04/09 19:42:47;;;;;;;10.75;3.63;;;;;;;19.07;100.00;101165.50;11331315;26;20016;-82
2024/04/09 19:48:12;;;;;;;11.82;3.65;;;;;;;19.03;100.00;101158.41;11304815;26;19994;-80
2024/04/09 19:53:39;;;;;;;14.13;4.78;;;;;;;19.02;100.00;101161.13;11329822;26;20051;-80
2024/04/09 19:59:05;;;;;;;9.48;3.85;;;;;;;18.99;100.00;101158.47;11304209;26;20450;-85
2024/04/09 20:04:31;;;;;;;12.60;4.28;;;;;;;18.96;100.00;101166.56;11302407;26;20006;-84
2024/04/09 20:10:03;;;;;;;11.45;3.38;;;;;;;19.02;100.00;101169.16;11297069;26;20071;-84
2024/04/09 20:15:31;;;;;;;11.27;3.78;;;;;;;18.90;100.00;101166.63;11323380;26;19994;-84
2024/04/09 20:27:07;;;;;;;7.97;3.13;;;;;;;18.79;100.00;101164.06;11313200;26;20002;-84
2024/04/09 20:32:34;;;;;;;9.32;3.45;;;;;;;18.74;100.00;101165.91;11318123;26;20010;-83
2024/04/09 20:37:58;;;;;;;12.98;3.80;;;;;;;18.73;100.00;101163.25;11322853;26;20009;-84
2024/04/09 20:43:26;;;;;;;9.43;3.45;;;;;;;18.73;100.00;101166.81;11322701;26;20013;-84
2024/04/09 20:48:50;;;;;;;12.50;3.63;;;;;;;18.67;100.00;101164.22;11342961;26;20066;-84
2024/04/09 20:54:17;;;;;;;10.68;3.60;;;;;;;18.61;100.00;101161.59;11324708;26;20018;-83
2024/04/09 20:59:45;;;;;;;10.18;3.38;;;;;;;18.58;100.00;101159.84;11324265;26;20030;-84
2024/04/09 21:05:10;;;;;;;11.82;4.40;;;;;;;18.61;100.00;101175.88;11298899;26;20009;-84
2024/04/09 21:10:34;;;;;;;10.95;3.67;;;;;;;18.52;100.00;101164.34;11324682;26;20435;-83
2024/04/09 21:16:02;;;;;;;12.07;3.95;;;;;;;18.37;100.00;101162.72;11324014;26;20316;-87
2024/04/09 21:21:28;;;;;;;12.83;4.53;;;;;;;18.33;100.00;101172.53;11324049;26;20078;-85
2024/04/09 21:26:52;;;;;;;7.75;3.97;;;;;;;18.35;100.00;101177.88;11323699;26;20017;-85
2024/04/09 21:32:19;;;;;;;7.07;3.63;;;;;;;18.28;100.00;101170.81;11301638;26;20013;-84
2024/04/09 21:37:44;;;;;;;10.33;3.77;;;;;;;18.27;100.00;101161.03;11306768;26;20009;-85
2024/04/09 21:43:09;;;;;;;8.40;3.63;;;;;;;18.29;100.00;101159.22;11331665;26;20037;-85
2024/04/09 21:48:37;;;;;;;12.10;4.18;;;;;;;18.20;100.00;101151.28;11330549;26;20021;-84
2024/04/09 21:54:01;;;;;;;12.00;3.97;;;;;;;18.19;100.00;101161.09;11304953;26;20052;-84
2024/04/09 21:59:25;;;;;;;9.30;3.72;;;;;;;18.02;100.00;101155.03;11328827;26;20078;-84
2024/04/09 22:04:53;;;;;;;11.18;4.00;;;;;;;18.06;100.00;101146.06;11329157;26;20445;-85
2024/04/09 22:10:18;;;;;;;12.07;3.92;;;;;;;18.10;100.00;101147.84;11305052;26;20082;-83
2024/04/09 22:15:43;;;;;;;8.90;3.90;;;;;;;18.09;100.00;101154.06;11305861;26;20002;-83
2024/04/09 22:21:10;;;;;;;13.60;4.30;;;;;;;18.05;100.00;101146.09;11355355;26;19998;-84
2024/04/09 22:26:36;;;;;;;6.85;3.33;;;;;;;17.99;100.00;101148.81;11355035;26;19998;-85
2024/04/09 22:32:02;;;;;;;10.27;3.45;;;;;;;18.00;100.00;101150.59;11354861;26;20013;-83
2024/04/09 22:37:31;;;;;;;9.10;3.50;;;;;;;18.05;100.00;101154.13;11354604;26;19994;-83
2024/04/09 22:43:02;;;;;;;;;;;;;;;18.08;100.00;101146.06;11328777;26;19998;-84
2024/04/09 22:48:26;;;;;;;12.15;3.60;;;;;;;18.01;100.00;101147.91;11342377;26;19930;-83
2024/04/09 22:53:55;;;;;;;8.32;3.30;;;;;;;17.97;100.00;101145.28;11328776;26;20713;-84
2024/04/09 22:59:20;;;;;;;8.75;3.83;;;;;;;17.90;100.00;101155.13;11328323;26;20003;-85
2024/04/09 23:04:45;;;;;;;14.57;3.88;;;;;;;17.90;100.00;101155.13;11303627;26;19998;-83
2024/04/09 23:10:12;;;;;;;11.63;4.13;;;;;;;17.87;100.00;101145.34;11328963;26;20438;-83
2024/04/09 23:15:37;;;;;;;7.88;3.75;;;;;;;17.83;100.00;101143.59;11304065;26;20079;-84
2024/04/09 23:21:03;;;;;;;13.25;4.25;;;;;;;17.81;100.00;101136.50;11353141;26;20046;-84
2024/04/09 23:26:30;;;;;;;10.18;3.63;;;;;;;17.83;100.00;101134.72;11353518;26;20013;-83
2024/04/09 23:31:54;;;;;;;11.60;3.80;;;;;;;17.85;100.00;101140.94;11304416;26;20115;-84
2024/04/09 23:37:19;;;;;;;11.07;3.13;;;;;;;17.83;100.00;101140.06;11353730;26;19998;-85
2024/04/09 23:42:46;;;;;;;8.75;3.80;;;;;;;17.75;100.00;101133.88;11327637;26;19997;-84
2024/04/09 23:48:11;;;;;;;8.27;3.60;;;;;;;17.62;100.00;101121.53;11353270;26;19998;-84
2024/04/09 23:53:43;;;;;;;6.72;3.38;;;;;;;17.60;100.00;101116.16;11251719;26;20013;-84
2024/04/09 23:59:11;;;;;;;8.95;3.70;;;;;;;17.61;100.00;101120.63;11251462;26;20010;-84
